createdAt,value
2018-04-01T00:01:49.752Z,25.27
2018-04-01T00:04:16.951Z,20.13
2018-04-01T00:06:44.155Z,22.70
2018-04-01T00:12:42.748Z,20.73
2018-04-01T00:18:21.489Z,15.05
2018-04-01T00:20:48.718Z,15.37
2018-04-01T00:23:15.916Z,11.30
2018-04-01T00:25:44.080Z,10.43
2018-04-01T00:31:22.656Z,19.03
2018-04-01T00:33:49.858Z,14.47
2018-04-01T00:36:17.072Z,12.90
2018-04-01T00:38:44.284Z,14.43
2018-04-01T00:41:12.255Z,11.03
2018-04-01T00:43:40.228Z,13.70
2018-04-01T00:46:07.442Z,11.37
2018-04-01T00:48:34.663Z,8.67
2018-04-01T00:54:34.963Z,15.63
2018-04-01T01:22:26.872Z,14.43
2018-04-01T01:24:54.079Z,9.40
2018-04-01T01:27:21.284Z,10.30
2018-04-01T01:29:48.564Z,8.05
2018-04-01T01:38:56.961Z,8.93
2018-04-01T05:45:50.738Z,6.43
2018-04-01T05:52:37.500Z,3.43
2018-04-01T05:58:09.877Z,4.13
2018-04-01T06:00:37.106Z,8.57
2018-04-01T06:06:36.549Z,8.63
2018-04-01T06:09:45.042Z,20.70
2018-04-01T06:12:12.308Z,12.97
2018-04-01T06:21:53.921Z,10.20
2018-04-01T06:24:21.122Z,13.50
2018-04-01T06:26:48.325Z,9.50
2018-04-01T06:29:15.506Z,6.20
2018-04-01T06:31:42.681Z,6.70
2018-04-01T06:34:09.873Z,16.40
2018-04-01T06:36:37.058Z,8.33
2018-04-01T06:39:04.294Z,6.00
2018-04-01T06:41:32.251Z,13.80
2018-04-01T06:44:00.207Z,8.23
2018-04-01T06:46:27.400Z,17.00
2018-04-01T06:48:54.578Z,5.63
2018-04-01T06:51:21.778Z,7.93
2018-04-01T06:53:49.761Z,3.73
2018-04-01T06:56:17.020Z,12.53
2018-04-01T06:58:44.221Z,7.10
2018-04-01T07:01:12.224Z,41.53
2018-04-01T07:03:39.440Z,49.30
2018-04-01T07:06:06.647Z,30.77
2018-04-01T07:08:33.883Z,25.57
2018-04-01T07:11:01.081Z,21.37
2018-04-01T07:13:28.273Z,12.40
2018-04-01T07:15:56.237Z,11.33
2018-04-01T07:18:24.211Z,8.13
2018-04-01T07:20:52.246Z,21.07
2018-04-01T07:23:19.434Z,23.03
2018-04-01T07:25:46.649Z,19.90
2018-04-01T07:28:13.833Z,18.80
2018-04-01T07:30:41.787Z,19.20
2018-04-01T07:33:08.983Z,11.73
2018-04-01T07:35:36.282Z,19.43
2018-04-01T07:38:03.486Z,11.33
2018-04-01T07:40:30.693Z,25.80
2018-04-01T07:42:57.878Z,15.63
2018-04-01T07:45:25.070Z,16.97
2018-04-01T07:47:52.265Z,21.93
2018-04-01T07:50:20.234Z,16.47
2018-04-01T07:52:48.201Z,13.90
2018-04-01T07:55:16.146Z,11.33
2018-04-01T07:57:43.398Z,24.37
2018-04-01T08:00:10.578Z,10.37
2018-04-01T08:02:37.767Z,12.30
2018-04-01T08:05:05.076Z,12.20
2018-04-01T08:07:33.033Z,13.73
2018-04-01T08:10:01.046Z,13.37
2018-04-01T08:12:28.242Z,7.37
2018-04-01T08:14:56.266Z,7.70
2018-04-01T08:17:23.429Z,10.17
2018-04-01T08:19:50.612Z,9.67
2018-04-01T08:22:17.866Z,6.33
2018-04-01T08:24:45.056Z,14.83
2018-04-01T08:27:12.238Z,9.33
2018-04-01T08:29:40.185Z,13.30
2018-04-01T08:32:07.381Z,11.20
2018-04-01T08:34:34.573Z,4.50
2018-04-01T08:37:01.790Z,8.00
2018-04-01T08:39:29.745Z,9.53
2018-04-01T08:41:58.111Z,12.00
2018-04-01T08:44:25.554Z,6.27
2018-04-01T08:46:52.976Z,5.60
2018-04-01T08:49:20.566Z,11.33
2018-04-01T08:51:47.784Z,11.80
2018-04-01T08:54:14.978Z,23.53
2018-04-01T08:56:45.955Z,14.57
2018-04-01T08:59:13.922Z,16.57
2018-04-01T09:01:41.914Z,10.63
2018-04-01T09:04:09.105Z,5.27
2018-04-01T09:06:36.326Z,9.00
2018-04-01T09:09:03.579Z,6.83
2018-04-01T09:11:30.910Z,9.23
2018-04-01T09:13:58.191Z,5.75
2018-04-01T09:16:25.429Z,13.45
2018-04-01T09:18:52.658Z,5.30
2018-04-01T09:21:20.794Z,8.47
2018-04-01T09:23:48.016Z,5.73
2018-04-01T09:26:15.285Z,5.43
2018-04-01T09:28:42.475Z,6.15
2018-04-01T09:31:10.466Z,9.43
2018-04-01T09:33:37.673Z,5.40
2018-04-01T09:36:04.872Z,8.10
2018-04-01T09:38:32.161Z,6.83
2018-04-01T09:40:59.351Z,7.03
2018-04-01T09:43:27.313Z,5.30
2018-04-01T09:45:55.274Z,3.95
2018-04-01T09:48:22.462Z,9.00
2018-04-01T09:50:49.662Z,7.53
2018-04-01T09:53:16.853Z,5.05
2018-04-01T09:55:44.806Z,2.80
2018-04-01T09:58:12.001Z,7.23
2018-04-01T10:00:48.599Z,4.27
2018-04-01T10:03:17.130Z,4.10
2018-04-01T10:05:44.872Z,7.67
2018-04-01T10:08:13.397Z,4.83
2018-04-01T10:10:41.665Z,6.10
2018-04-01T10:13:09.467Z,8.53
2018-04-01T10:15:37.247Z,8.53
2018-04-01T10:18:05.017Z,4.37
2018-04-01T10:20:33.524Z,2.80
2018-04-01T10:23:02.011Z,5.33
2018-04-01T10:25:29.775Z,7.50
2018-04-01T10:27:57.506Z,9.47
2018-04-01T10:30:25.234Z,6.00
2018-04-01T10:32:52.961Z,3.57
2018-04-01T10:35:20.717Z,3.87
2018-04-01T10:37:49.206Z,4.80
2018-04-01T10:40:16.922Z,4.60
2018-04-01T10:42:44.646Z,4.10
2018-04-01T10:45:12.374Z,8.10
2018-04-01T10:47:40.882Z,4.17
2018-04-01T10:50:08.626Z,4.03
2018-04-01T10:52:37.106Z,4.77
2018-04-01T10:55:05.137Z,7.70
2018-04-01T10:57:32.332Z,1.77
2018-04-01T11:00:00.336Z,6.03
2018-04-01T11:02:27.515Z,9.50
2018-04-01T11:04:54.727Z,5.27
2018-04-01T11:07:21.933Z,4.57
2018-04-01T11:09:49.125Z,6.97
2018-04-01T11:12:16.314Z,6.80
2018-04-01T11:14:43.525Z,3.77
2018-04-01T11:17:10.714Z,4.90
2018-04-01T11:19:37.901Z,4.37
2018-04-01T11:22:05.917Z,5.10
2018-04-01T11:24:33.361Z,4.67
2018-04-01T11:27:00.839Z,2.57
2018-04-01T11:29:28.292Z,6.67
2018-04-01T11:31:55.734Z,5.17
2018-04-01T11:34:23.173Z,5.13
2018-04-01T11:36:51.403Z,11.03
2018-04-01T11:39:18.842Z,5.20
2018-04-01T11:41:46.283Z,4.70
2018-04-01T11:44:13.723Z,11.87
2018-04-01T11:46:41.174Z,7.47
2018-04-01T11:49:08.618Z,7.20
2018-04-01T11:51:36.830Z,7.43
2018-04-01T11:54:04.288Z,5.20
2018-04-01T11:56:31.746Z,4.70
2018-04-01T11:58:59.182Z,7.60
2018-04-01T12:01:26.671Z,10.70
2018-04-01T12:03:54.122Z,6.37
2018-04-01T12:06:21.566Z,4.53
2018-04-01T12:08:49.016Z,5.07
2018-04-01T12:11:16.463Z,5.10
2018-04-01T12:13:43.958Z,3.57
2018-04-01T12:16:11.391Z,3.00
2018-04-01T12:18:38.874Z,6.33
2018-04-01T12:21:06.318Z,4.90
2018-04-01T12:23:33.756Z,2.87
2018-04-01T12:26:01.221Z,11.27
2018-04-01T12:28:28.670Z,9.40
2018-04-01T12:30:56.107Z,8.53
2018-04-01T12:33:23.567Z,9.30
2018-04-01T12:35:51.018Z,7.03
2018-04-01T12:38:18.465Z,4.50
2018-04-01T12:40:46.663Z,4.33
2018-04-01T12:43:14.128Z,6.73
2018-04-01T12:45:41.579Z,7.47
2018-04-01T12:48:09.022Z,5.83
2018-04-01T12:50:36.463Z,3.47
2018-04-01T12:53:04.690Z,4.67
2018-04-01T12:55:32.126Z,5.40
2018-04-01T12:57:59.603Z,4.83
2018-04-01T13:00:27.110Z,4.47
2018-04-01T13:02:55.347Z,6.60
2018-04-01T13:05:22.798Z,3.67
2018-04-01T13:07:50.679Z,3.33
2018-04-01T13:10:18.166Z,4.17
2018-04-01T13:12:46.414Z,21.50
2018-04-01T13:15:13.863Z,5.13
2018-04-01T13:17:41.302Z,6.13
2018-04-01T13:20:08.774Z,5.57
2018-04-01T13:22:36.210Z,8.43
2018-04-01T13:25:03.498Z,4.27
2018-04-01T13:27:30.939Z,5.30
2018-04-01T13:29:58.405Z,5.60
2018-04-01T13:32:25.846Z,6.73
2018-04-01T13:34:53.298Z,3.53
2018-04-01T13:37:21.688Z,10.00
2018-04-01T13:39:49.134Z,4.47
2018-04-01T13:42:16.574Z,5.90
2018-04-01T13:44:44.058Z,11.40
2018-04-01T13:47:11.503Z,4.20
2018-04-01T13:49:38.933Z,6.00
2018-04-01T13:52:06.383Z,7.73
2018-04-01T13:54:33.821Z,5.30
2018-04-01T13:57:02.043Z,5.33
2018-04-01T13:59:29.497Z,8.40
2018-04-01T14:01:56.945Z,9.43
2018-04-01T14:04:24.516Z,7.27
2018-04-01T14:06:51.953Z,4.50
2018-04-01T14:09:19.393Z,6.60
2018-04-01T14:11:46.845Z,4.13
2018-04-01T14:14:14.286Z,5.07
2018-04-01T14:16:42.498Z,2.43
2018-04-01T14:19:09.949Z,3.67
2018-04-01T14:21:37.411Z,6.00
2018-04-01T14:24:04.849Z,2.03
2018-04-01T14:26:32.302Z,4.40
2018-04-01T14:28:59.741Z,5.57
2018-04-01T14:31:27.980Z,3.60
2018-04-01T14:33:55.518Z,11.07
2018-04-01T14:36:22.978Z,3.47
2018-04-01T14:38:50.440Z,7.30
2018-04-01T14:41:17.889Z,7.43
2018-04-01T14:43:45.462Z,3.70
2018-04-01T14:46:12.954Z,6.50
2018-04-01T14:48:40.410Z,2.90
2018-04-01T14:51:07.873Z,3.90
2018-04-01T14:53:36.094Z,4.07
2018-04-01T14:56:03.561Z,5.40
2018-04-01T14:58:31.023Z,2.57
2018-04-01T15:00:59.235Z,4.00
2018-04-01T15:03:26.966Z,4.62
2018-04-01T15:05:54.413Z,5.90
2018-04-01T15:08:21.883Z,5.33
2018-04-01T15:10:49.347Z,3.40
2018-04-01T15:13:16.819Z,3.83
2018-04-01T15:15:44.277Z,6.97
2018-04-01T15:18:11.726Z,11.30
2018-04-01T15:20:39.170Z,3.00
2018-04-01T15:23:06.677Z,6.47
2018-04-01T15:25:34.121Z,5.00
2018-04-01T15:28:02.386Z,8.57
2018-04-01T15:30:30.607Z,7.70
2018-04-01T15:32:58.055Z,3.20
2018-04-01T15:35:25.510Z,3.07
2018-04-01T15:37:52.958Z,11.77
2018-04-01T15:40:20.415Z,4.90
2018-04-01T15:42:47.903Z,7.07
2018-04-01T15:45:15.341Z,5.00
2018-04-01T15:47:42.782Z,7.13
2018-04-01T15:50:10.236Z,2.30
2018-04-01T15:52:37.674Z,6.70
2018-04-01T15:55:05.874Z,6.60
2018-04-01T15:57:33.329Z,2.50
2018-04-01T16:00:00.809Z,4.17
2018-04-01T16:02:28.251Z,1.97
2018-04-01T16:04:55.703Z,4.30
2018-04-01T16:07:23.147Z,4.37
2018-04-01T16:09:50.595Z,4.03
2018-04-01T16:12:18.801Z,4.07
2018-04-01T16:14:46.242Z,10.73
2018-04-01T16:17:13.727Z,2.63
2018-04-01T16:19:41.190Z,5.90
2018-04-01T16:22:08.666Z,5.43
2018-04-01T16:24:36.102Z,6.80
2018-04-01T16:27:03.547Z,12.63
2018-04-01T16:29:30.990Z,3.57
2018-04-01T16:31:58.425Z,1.57
2018-04-01T16:34:26.652Z,3.40
2018-04-01T16:36:54.095Z,5.77
2018-04-01T16:39:21.542Z,4.33
2018-04-01T16:41:48.989Z,5.03
2018-04-01T16:44:16.473Z,3.80
2018-04-01T16:46:43.924Z,3.40
2018-04-01T16:49:11.365Z,4.93
2018-04-01T16:51:38.826Z,5.33
2018-04-01T16:54:06.267Z,7.10
2018-04-01T16:56:33.709Z,2.80
2018-04-01T16:59:01.927Z,3.78
2018-04-01T17:01:29.374Z,4.20
2018-04-01T17:03:56.813Z,5.00
2018-04-01T17:06:24.254Z,4.87
2018-04-01T17:08:52.455Z,3.33
2018-04-01T17:11:19.721Z,5.90
2018-04-01T17:13:47.161Z,5.40
2018-04-01T17:16:14.606Z,2.23
2018-04-01T17:18:42.110Z,3.90
2018-04-01T17:21:09.555Z,4.50
2018-04-01T17:23:36.990Z,6.50
2018-04-01T17:26:04.434Z,7.47
2018-04-01T17:28:31.874Z,4.90
2018-04-01T17:30:59.322Z,5.23
2018-04-01T17:33:27.521Z,14.20
2018-04-01T17:35:54.958Z,3.00
2018-04-01T17:38:22.407Z,4.33
2018-04-01T17:40:50.610Z,4.63
2018-04-01T17:43:18.057Z,7.00
2018-04-01T17:45:45.535Z,10.33
2018-04-01T17:48:12.998Z,7.57
2018-04-01T17:50:40.446Z,6.03
2018-04-01T17:53:07.886Z,11.73
2018-04-01T17:55:35.337Z,8.70
2018-04-01T17:58:02.794Z,4.53
2018-04-01T18:00:30.313Z,5.70
2018-04-01T18:02:57.818Z,6.20
2018-04-01T18:05:25.261Z,3.37
2018-04-01T18:07:52.710Z,4.20
2018-04-01T18:10:20.171Z,3.93
2018-04-01T18:12:48.389Z,4.40
2018-04-01T18:15:15.862Z,8.13
2018-04-01T18:17:43.364Z,6.03
2018-04-01T18:20:10.814Z,5.13
2018-04-01T18:22:39.014Z,8.93
2018-04-01T18:25:06.543Z,6.00
2018-04-01T18:27:34.769Z,4.60
2018-04-01T18:30:02.236Z,12.77
2018-04-01T18:32:29.773Z,4.07
2018-04-01T18:34:57.208Z,6.13
2018-04-01T18:37:24.647Z,6.57
2018-04-01T18:39:52.858Z,4.63
2018-04-01T18:42:20.307Z,4.03
2018-04-01T18:44:47.764Z,9.63
2018-04-01T18:47:15.198Z,6.40
2018-04-01T18:49:43.406Z,5.17
2018-04-01T18:52:10.885Z,7.47
2018-04-01T18:54:38.336Z,5.55
2018-04-01T18:57:05.801Z,4.90
2018-04-01T18:59:33.246Z,7.93
2018-04-01T19:02:00.910Z,4.07
2018-04-01T19:04:28.376Z,6.07
2018-04-01T19:06:55.826Z,3.30
2018-04-01T19:09:23.273Z,2.13
2018-04-01T19:11:50.754Z,7.67
2018-04-01T19:14:18.211Z,4.40
2018-04-01T19:16:58.239Z,8.20
2018-04-01T19:19:27.050Z,5.37
2018-04-01T19:21:55.536Z,3.63
2018-04-01T19:24:24.206Z,4.30
2018-04-01T19:26:52.850Z,7.37
2018-04-01T19:29:21.502Z,5.43
2018-04-01T19:31:50.991Z,12.90
2018-04-01T19:34:19.669Z,20.60
2018-04-01T19:36:48.310Z,61.57
2018-04-01T19:39:16.953Z,94.50
2018-04-01T19:41:45.615Z,110.63
2018-04-01T19:44:13.974Z,75.43
2018-04-01T19:46:42.616Z,23.40
2018-04-01T19:49:11.849Z,16.10
2018-04-01T19:51:40.309Z,8.00
2018-04-01T19:54:08.947Z,5.73
2018-04-01T19:56:37.611Z,8.47
2018-04-01T21:08:43.522Z,7.70
2018-04-01T21:11:11.331Z,11.20
2018-04-01T21:13:39.061Z,6.50
2018-04-01T21:16:07.562Z,5.73
2018-04-01T21:18:36.143Z,3.50
2018-04-01T21:21:04.648Z,3.93
2018-04-01T21:23:32.412Z,2.40
2018-04-01T21:26:00.159Z,3.27
2018-04-01T21:28:27.908Z,3.83
2018-04-01T21:30:55.762Z,2.63
2018-04-01T21:33:24.264Z,4.90
2018-04-01T21:35:52.047Z,3.00
2018-04-01T21:38:19.767Z,4.17
2018-04-01T21:40:47.542Z,2.30
2018-04-01T21:43:16.026Z,5.23
2018-04-01T21:45:44.760Z,4.47
2018-04-01T21:48:12.473Z,4.23
2018-04-01T21:50:40.959Z,5.87
2018-04-01T21:53:09.450Z,8.27
2018-04-01T21:55:37.181Z,7.57
2018-04-01T21:58:04.930Z,2.03
2018-04-01T22:00:32.672Z,3.53
2018-04-01T22:03:00.388Z,3.60
2018-04-01T22:05:28.883Z,11.63
2018-04-01T22:07:56.605Z,5.40
2018-04-01T22:10:24.366Z,5.20
2018-04-01T22:12:52.096Z,5.70
2018-04-01T22:15:19.849Z,6.13
2018-04-01T22:17:47.584Z,7.73
2018-04-01T22:20:16.093Z,6.67
2018-04-01T22:22:55.654Z,8.30
2018-04-01T22:25:23.431Z,5.00
2018-04-01T22:27:51.174Z,1.63
2018-04-01T22:30:18.894Z,2.90
2018-04-01T22:32:47.390Z,2.87
2018-04-01T22:35:15.902Z,2.53
2018-04-01T22:37:43.649Z,3.33
2018-04-01T22:40:11.374Z,2.27
2018-04-01T22:42:39.114Z,2.43
2018-04-01T22:45:06.839Z,4.60
2018-04-01T22:47:34.617Z,7.70
2018-04-01T22:50:02.394Z,4.53
2018-04-01T22:52:30.120Z,2.13
2018-04-01T22:54:57.858Z,4.23
2018-04-01T22:57:25.580Z,6.57
2018-04-01T22:59:53.314Z,3.20
2018-04-01T23:02:21.051Z,3.77
2018-04-01T23:04:49.560Z,4.50
2018-04-01T23:07:17.327Z,4.63
2018-04-01T23:09:45.054Z,4.27
2018-04-01T23:12:12.767Z,3.43
2018-04-01T23:14:40.509Z,1.90
2018-04-01T23:17:08.234Z,4.23
2018-04-01T23:19:35.954Z,5.77
2018-04-01T23:22:03.671Z,5.20
2018-04-01T23:24:32.161Z,3.00
2018-04-01T23:27:00.642Z,3.87
2018-04-01T23:29:29.122Z,2.33
2018-04-01T23:31:57.608Z,3.03
2018-04-01T23:34:26.100Z,4.30
2018-04-01T23:36:53.821Z,4.73
2018-04-01T23:39:21.549Z,5.27
2018-04-01T23:41:49.276Z,3.73
2018-04-01T23:44:17.758Z,3.20
2018-04-01T23:46:46.242Z,2.83
2018-04-01T23:49:14.734Z,9.07
2018-04-01T23:51:42.466Z,4.70
2018-04-01T23:54:10.208Z,3.87
2018-04-01T23:56:38.730Z,4.13
2018-04-01T23:59:07.290Z,5.33
